Latest Weather Observations for Coles Point

IDS60801

Issued at 7:31 pm CST Tuesday 31 May 2016 (issued every 30 minutes, with the page automatically refreshed every 10 minutes)

About weather observations | Map of weather stations | Latest weather observations for SA | Other Formats
Station Details ID: 018191 Name: COLES POINT Lat: -34.37 Lon: 135.37 Height: 28.0 m
Data from the previous 72 hours. | See also: Recent months at Coles Point
Date/Time
CST
Temp
°C
App
Temp
°C
Dew
Point
Rel
Hum
%
Delta-T
°C
Wind Press
QNH
hPa
Press
MSL
hPa
Rain
since 9 am
mm
Dir
 
Spd
km/h
Gust
km/h
Spd
kts
Gust
kts
31/07:30pm 14.6 13.1 11.9 84 1.5 W 11 13 6 7 1022.2 1022.1 0.0
31/07:00pm 15.0 12.6 12.7 86 1.3 WNW 17 24 9 13 1022.1 1022.0 0.0
31/06:30pm 14.9 13.7 11.5 80 1.8 NW 9 13 5 7 1021.8 1021.7 0.0
31/06:00pm 14.9 13.3 11.7 81 1.7 WNW 11 15 6 8 1021.7 1021.6 0.0
31/05:30pm 15.6 12.7 12.2 80 1.9 NW 19 22 10 12 1021.6 1021.5 0.0
31/05:00pm 15.7 13.7 11.5 76 2.3 NW 13 17 7 9 1021.3 1021.2 0.0
31/04:30pm 16.0 13.8 12.2 78 2.1 NW 15 19 8 10 1021.1 1021.0 0.0
31/04:00pm 16.6 14.0 12.0 74 2.5 NW 17 22 9 12 1020.9 1020.8 0.0
31/03:30pm 17.1 13.9 11.8 71 2.9 NW 20 24 11 13 1020.6 1020.5 0.0
31/03:00pm 16.8 14.4 12.5 76 2.4 NW 17 24 9 13 1020.6 1020.5 0.0
31/02:30pm 17.0 13.9 12.1 73 2.7 NW 20 26 11 14 1020.4 1020.3 0.0
31/02:00pm 17.9 13.8 11.5 66 3.5 NNW 24 28 13 15 1020.4 1020.3 0.0
31/01:30pm 18.4 15.2 11.9 66 3.6 NNW 20 24 11 13 1020.5 1020.4 0.0
31/01:00pm 17.7 14.3 11.3 66 3.5 NNW 20 26 11 14 1020.7 1020.6 0.0
31/12:30pm 17.1 14.7 12.6 75 2.5 NW 17 20 9 11 1020.9 1020.8 0.0
31/12:00pm 17.0 14.2 12.7 76 2.4 NW 19 22 10 12 1021.4 1021.3 0.0
31/11:30am 17.3 14.3 12.4 73 2.7 NNW 20 26 11 14 1021.6 1021.5 0.0
31/11:00am 16.6 13.5 12.2 75 2.4 NNW 20 26 11 14 1021.9 1021.8 0.0
31/10:30am 15.2 14.1 13.1 87 1.2 NE 11 17 6 9 1022.0 1021.9 0.0
31/10:00am 13.8 11.9 13.0 95 0.4 NE 15 19 8 10 1022.0 1021.9 0.0
31/09:30am 12.7 10.7 12.7 100 0.0 NE 15 17 8 9 1022.0 1021.9 0.0
31/09:00am 11.2 8.7 11.2 100 0.0 NE 15 19 8 10 1022.0 1021.9 0.2
31/08:30am 10.9 8.3 10.7 99 0.1 ENE 15 19 8 10 1021.7 1021.6 0.2
31/08:00am 11.3 8.8 11.1 99 0.1 NNE 15 19 8 10 1021.2 1021.1 0.2
31/07:30am 10.9 7.9 10.7 99 0.1 NE 17 22 9 12 1020.9 1020.8 0.2
31/07:00am 11.0 8.4 10.8 99 0.1 NE 15 20 8 11 1020.5 1020.4 0.2
31/06:30am 11.2 8.7 11.0 99 0.1 NE 15 17 8 9 1020.2 1020.1 0.2
31/06:00am 10.9 8.3 10.7 99 0.1 NE 15 17 8 9 1020.1 1020.0 0.2
31/05:30am 10.9 8.7 10.7 99 0.1 NE 13 17 7 9 1020.0 1019.9 0.2
31/05:00am 12.4 10.2 12.2 99 0.1 NNE 15 22 8 12 1019.7 1019.6 0.2
31/04:30am 10.8 8.2 10.8 100 0.0 NE 15 19 8 10 1019.7 1019.6 0.0
31/04:00am 10.2 7.0 10.1 99 0.1 NE 17 19 9 10 1019.6 1019.5 0.0
31/03:30am 10.2 6.7 10.1 99 0.1 NE 19 22 10 12 1019.4 1019.3 0.0
31/03:00am 10.3 6.8 10.1 99 0.1 NE 19 20 10 11 1019.3 1019.2 0.0
31/02:30am 11.0 7.6 10.7 98 0.2 NE 19 22 10 12 1019.3 1019.2 0.0
31/02:00am 11.7 9.2 11.2 97 0.3 ENE 15 17 8 9 1019.3 1019.2 0.0
31/01:30am 12.2 12.0 11.9 98 0.2 W 4 11 2 6 1019.4 1019.3 0.0
31/01:00am 12.0 10.0 11.5 97 0.3 NE 13 15 7 8 1019.3 1019.2 0.0
31/12:30am 12.4 10.5 11.8 96 0.3 NE 13 15 7 8 1019.5 1019.4 0.0
31/12:00am 12.7 11.2 11.8 94 0.5 NNE 11 15 6 8 1019.5 1019.4 0.0
 
Date/Time
CST
Temp
°C
App
Temp
°C
Dew
Point
Rel
Hum
%
Delta-T
°C
Wind Press
QNH
hPa
Press
MSL
hPa
Rain
since 9 am
mm
Dir
 
Spd
km/h
Gust
km/h
Spd
kts
Gust
kts
30/11:30pm 13.1 12.6 12.2 94 0.5 N 6 11 3 6 1019.5 1019.4 0.0
30/11:00pm 13.0 11.4 11.7 92 0.7 NE 11 13 6 7 1019.6 1019.5 0.0
30/10:30pm 13.6 12.6 12.2 91 0.8 NNE 9 11 5 6 1019.6 1019.5 0.0
30/10:00pm 13.1 11.5 11.5 90 0.8 NNE 11 13 6 7 1019.6 1019.5 0.0
30/09:30pm 13.2 12.4 11.6 90 0.8 N 7 13 4 7 1019.5 1019.4 0.0
30/09:00pm 13.2 12.3 11.4 89 1.0 N 7 11 4 6 1019.2 1019.1 0.0
30/08:30pm 14.1 13.6 12.1 88 1.1 NNW 6 7 3 4 1019.0 1018.9 0.0
30/08:00pm 14.7 13.7 12.4 86 1.3 N 9 13 5 7 1018.9 1018.8 0.0
30/07:30pm 14.6 13.3 12.5 87 1.1 NNW 11 17 6 9 1018.8 1018.7 0.0
30/07:00pm 13.4 11.7 11.1 86 1.2 N 11 15 6 8 1018.6 1018.5 0.0
30/06:30pm 14.9 13.7 12.8 87 1.2 NNW 11 19 6 10 1018.2 1018.2 0.0
30/06:00pm 14.1 13.2 11.4 84 1.4 NNW 7 9 4 5 1017.8 1017.8 0.0
30/05:30pm 14.7 13.3 12.2 85 1.4 NW 11 15 6 8 1017.5 1017.5 0.0
30/05:00pm 15.4 13.3 12.3 82 1.7 WNW 15 19 8 10 1017.2 1017.2 0.0
30/04:30pm 15.7 14.0 12.3 80 1.9 NNW 13 19 7 10 1017.0 1017.0 0.0
30/04:00pm 17.2 14.1 11.7 70 3.0 NNW 19 26 10 14 1016.6 1016.6 0.0
30/03:30pm 17.3 13.5 11.3 68 3.2 NNW 22 28 12 15 1016.3 1016.3 0.0
30/03:00pm 16.7 13.7 12.0 74 2.6 NNW 19 24 10 13 1016.1 1016.1 0.0
30/02:30pm 16.7 12.5 12.5 76 2.3 NNW 26 32 14 17 1016.1 1016.1 0.0
30/02:00pm 17.1 12.9 13.4 79 2.1 NNW 28 33 15 18 1016.1 1016.1 0.0
30/01:30pm 17.8 14.3 13.5 76 2.4 NNW 24 30 13 16 1016.0 1016.0 0.0
30/01:00pm 17.5 14.3 13.2 76 2.4 NNW 22 30 12 16 1016.1 1016.1 0.0
30/12:30pm 17.3 13.7 13.2 77 2.3 NNW 24 28 13 15 1016.4 1016.4 0.0
30/12:00pm 16.8 13.3 12.3 75 2.5 NNW 22 28 12 15 1016.7 1016.7 0.0
30/11:30am 17.3 14.3 11.8 70 3.0 NNW 19 24 10 13 1016.8 1016.8 0.0
30/11:00am 16.3 12.5 12.5 78 2.1 NNW 24 30 13 16 1017.0 1017.0 0.0
30/10:30am 15.1 13.6 13.1 88 1.1 NNE 13 17 7 9 1017.1 1017.1 0.0
30/10:00am 13.3 11.5 12.0 92 0.7 NNE 13 19 7 10 1017.0 1017.0 0.0
30/09:30am 12.0 9.1 10.9 93 0.6 NE 17 19 9 10 1016.8 1016.8 0.0
30/09:00am 10.6 7.3 9.7 94 0.5 NE 17 20 9 11 1016.7 1016.7 1.8
30/08:30am 10.1 7.1 9.2 94 0.4 ENE 15 17 8 9 1016.6 1016.6 1.8
30/08:00am 9.9 7.2 9.0 94 0.4 ENE 13 15 7 8 1016.1 1016.1 1.8
30/07:30am 9.7 6.9 8.6 93 0.5 ENE 13 15 7 8 1015.8 1015.8 1.8
30/07:00am 9.6 7.1 8.2 91 0.7 ENE 11 15 6 8 1015.4 1015.4 1.8
30/06:30am 10.1 7.3 8.5 90 0.8 ENE 13 15 7 8 1015.1 1015.1 1.8
30/06:00am 10.7 8.7 8.8 88 0.9 E 9 13 5 7 1014.8 1014.8 1.8
30/05:30am 10.6 7.4 8.4 86 1.1 NE 15 17 8 9 1014.4 1014.4 1.8
30/05:00am 11.5 8.8 9.1 85 1.2 NNE 13 17 7 9 1014.2 1014.2 1.8
30/04:30am 11.3 8.2 9.0 86 1.1 NNE 15 19 8 10 1014.0 1014.0 1.8
30/04:00am 10.5 7.8 8.9 90 0.8 NE 13 15 7 8 1013.8 1013.8 1.8
30/03:30am 10.9 8.3 9.2 89 0.8 NE 13 17 7 9 1013.9 1013.9 1.8
30/03:00am 11.6 9.2 9.9 89 0.9 NE 13 17 7 9 1013.8 1013.8 1.8
30/02:30am 11.8 8.4 10.4 91 0.7 NE 19 20 10 11 1013.6 1013.6 1.8
30/02:00am 12.0 8.4 10.4 90 0.8 NE 20 22 11 12 1013.8 1013.8 1.6
30/01:30am 12.1 9.0 10.2 88 1.0 NE 17 20 9 11 1013.9 1013.9 1.4
30/01:00am 12.4 8.9 10.3 87 1.1 NE 19 20 10 11 1014.0 1014.0 1.4
30/12:30am 12.4 8.8 10.5 88 1.0 NNE 20 24 11 13 1014.3 1014.3 1.4
30/12:00am 12.2 8.7 10.9 92 0.7 NE 20 24 11 13 1014.2 1014.2 1.4
 
Date/Time
CST
Temp
°C
App
Temp
°C
Dew
Point
Rel
Hum
%
Delta-T
°C
Wind Press
QNH
hPa
Press
MSL
hPa
Rain
since 9 am
mm
Dir
 
Spd
km/h
Gust
km/h
Spd
kts
Gust
kts
29/11:30pm 12.3 9.4 11.0 92 0.7 NE 17 19 9 10 1014.3 1014.3 1.4
29/11:00pm 12.4 9.3 11.5 94 0.5 NE 19 20 10 11 1014.5 1014.5 1.4
29/10:30pm 12.1 9.3 11.2 94 0.5 NE 17 17 9 9 1014.6 1014.6 1.4
29/10:00pm 12.5 10.5 11.4 93 0.6 NNE 13 15 7 8 1015.1 1015.1 1.4
29/09:30pm 12.4 10.6 11.0 91 0.7 NE 11 13 6 7 1015.3 1015.3 1.4
29/09:00pm 12.7 10.5 10.9 89 0.9 ENE 13 13 7 7 1015.2 1015.2 1.4
29/08:30pm 13.3 11.9 10.8 85 1.3 NNE 9 11 5 6 1015.4 1015.4 1.2
29/08:00pm 13.4 11.4 11.5 88 1.0 NNE 13 15 7 8 1015.7 1015.7 0.8
29/07:30pm 12.8 11.0 10.7 87 1.1 NNE 11 11 6 6 1014.8 1014.8 0.8
29/07:00pm 13.4 11.6 10.8 84 1.4 NNE 11 13 6 7 1014.7 1014.7 0.8
29/06:30pm 14.5 12.8 11.1 80 1.8 N 11 15 6 8 1014.6 1014.6 0.8
29/06:00pm 14.5 12.4 11.3 81 1.7 NNE 13 15 7 8 1014.3 1014.3 0.8
29/05:30pm 15.1 12.5 10.7 75 2.3 N 15 17 8 9 1014.3 1014.3 0.8
29/05:00pm 15.4 13.1 10.6 73 2.5 N 13 20 7 11 1014.2 1014.2 0.4
29/04:30pm 16.6 15.3 11.3 71 2.9 NNW 9 13 5 7 1014.3 1014.3 0.0
29/04:00pm 17.1 14.5 10.7 66 3.4 NNW 15 17 8 9 1014.2 1014.2 0.0
29/03:30pm 18.5 14.8 9.6 56 4.7 NNW 19 24 10 13 1014.0 1014.0 0.0
29/03:00pm 19.0 14.5 8.4 50 5.5 NNW 22 33 12 18 1014.1 1014.1 0.0
29/02:30pm 19.1 14.7 9.0 52 5.3 NNW 22 30 12 16 1013.9 1013.9 0.0
29/02:00pm 18.8 13.6 9.0 53 5.1 NNW 26 33 14 18 1014.2 1014.2 0.0
29/01:30pm 18.6 13.5 9.1 54 5.0 NNW 26 32 14 17 1014.5 1014.5 0.0
29/01:00pm 18.1 13.5 9.7 58 4.4 NNW 24 32 13 17 1014.9 1014.9 0.0
29/12:30pm 18.1 13.8 9.5 57 4.5 NNW 22 32 12 17 1015.2 1015.2 0.0
29/12:00pm 17.7 13.5 9.6 59 4.3 N 22 30 12 16 1015.7 1015.7 0.0
29/11:30am 16.6 12.0 8.3 58 4.2 N 22 28 12 15 1016.1 1016.1 0.0
29/11:00am 15.8 11.5 9.5 66 3.3 N 22 32 12 17 1016.4 1016.4 0.0
29/10:30am 14.0 10.8 11.3 84 1.4 NE 19 22 10 12 1016.7 1016.7 0.0
29/10:00am 12.2 8.6 10.4 89 0.9 NE 20 22 11 12 1016.7 1016.7 0.0
29/09:30am 11.5 7.9 10.6 94 0.5 NE 20 24 11 13 1016.8 1016.8 0.0
29/09:00am 10.1 6.2 9.6 97 0.2 NE 20 22 11 12 1016.8 1016.8 0.0
29/08:30am 10.0 6.2 9.7 98 0.2 NE 20 22 11 12 1016.7 1016.7 0.0
29/08:00am 9.6 5.3 9.3 98 0.1 NE 22 24 12 13 1016.4 1016.4 0.0
29/07:30am 9.5 5.2 9.2 98 0.1 NE 22 24 12 13 1016.4 1016.4 0.0
29/07:00am 9.6 5.2 9.1 97 0.2 NE 22 22 12 12 1016.4 1016.4 0.0
29/06:30am 10.0 6.1 9.5 97 0.2 NE 20 20 11 11 1016.3 1016.3 0.0
29/06:00am 10.0 6.3 9.5 97 0.2 NE 19 20 10 11 1016.2 1016.2 0.0
29/05:30am 10.2 6.6 9.7 97 0.3 NE 19 20 10 11 1016.1 1016.1 0.0
29/05:00am 10.2 6.9 9.6 96 0.3 NE 17 19 9 10 1016.2 1016.2 0.0
29/04:30am 10.5 7.3 9.9 96 0.3 NE 17 17 9 9 1016.2 1016.2 0.0
29/04:00am 10.8 7.6 10.0 95 0.4 NE 17 19 9 10 1016.4 1016.4 0.0
29/03:30am 11.3 8.3 10.5 95 0.4 NE 17 19 9 10 1016.4 1016.4 0.0
29/03:00am 11.2 9.3 10.6 96 0.3 NNE 11 15 6 8 1016.6 1016.6 0.0
29/02:30am 11.1 9.2 10.5 96 0.3 NNE 11 15 6 8 1016.8 1016.8 0.0
29/02:00am 11.0 9.1 10.4 96 0.3 NNE 11 13 6 7 1017.0 1017.0 0.0
29/01:30am 10.7 8.3 10.1 96 0.3 NE 13 15 7 8 1017.0 1017.0 0.0
29/01:00am 10.4 7.9 9.8 96 0.3 NNE 13 19 7 10 1017.1 1017.1 0.0
29/12:30am 9.8 7.0 8.7 93 0.5 NE 13 15 7 8 1017.2 1017.2 0.0
29/12:00am 10.4 7.4 9.2 92 0.6 NE 15 17 8 9 1017.6 1017.6 0.0
 
Date/Time
CST
Temp
°C
App
Temp
°C
Dew
Point
Rel
Hum
%
Delta-T
°C
Wind Press
QNH
hPa
Press
MSL
hPa
Rain
since 9 am
mm
Dir
 
Spd
km/h
Gust
km/h
Spd
kts
Gust
kts
28/11:30pm 10.2 7.1 9.0 92 0.6 ENE 15 17 8 9 1017.9 1017.9 0.0
28/11:00pm 10.4 7.3 9.0 91 0.7 NE 15 17 8 9 1018.0 1018.0 0.0
28/10:30pm 10.3 7.2 8.7 90 0.8 NNE 15 15 8 8 1018.0 1018.0 0.0
28/10:00pm 11.1 8.1 9.4 89 0.9 NNE 15 17 8 9 1018.2 1018.2 0.0
28/09:30pm 10.6 7.9 8.9 89 0.8 NNE 13 13 7 7 1018.2 1018.2 0.0
28/09:00pm 11.0 8.3 9.1 88 0.9 NE 13 13 7 7 1018.0 1018.0 0.0
28/08:30pm 11.4 9.2 9.3 87 1.1 NE 11 13 6 7 1018.4 1018.3 0.0
28/08:00pm 11.9 9.9 10.1 89 0.9 NE 11 13 6 7 1018.4 1018.3 0.0

Other Formats:

Comma delimited format used in spreadsheet applications
http://www.bom.gov.au/fwo/IDS60801/IDS60801.94658.axf

JavaScript Object Notation format (JSON) in row-major order
http://www.bom.gov.au/fwo/IDS60801/IDS60801.94658.json